Time;durP1;ratioP1;P1;durP2;ratioP2;P2;SDS_P1;SDS_P2;PMS_P1;PMS_P2;Temp;Humidity;BMP_temperature;BMP_pressure;BME280_temperature;BME280_humidity;BME280_pressure;Samples;Min_cycle;Max_cycle;Signal;HPM_P1;HPM_P2
2023/08/23 00:05:09;;;;;;;3.40;2.60;;;;;;;18.75;75.59;99615.40;435668;1255;142599;-63
2023/08/23 00:15:16;;;;;;;5.90;2.90;;;;;;;18.86;76.38;99618.56;435538;1257;138975;-63
2023/08/23 00:25:21;;;;;;;3.30;3.00;;;;;;;18.94;76.72;99610.29;435368;1254;140264;-63
2023/08/23 00:35:27;;;;;;;3.80;3.00;;;;;;;18.92;76.80;99618.52;435336;1254;143148;-64
2023/08/23 00:45:35;;;;;;;3.40;2.90;;;;;;;18.76;77.26;99622.20;435807;1257;140023;-63
2023/08/23 00:55:41;;;;;;;3.80;2.60;;;;;;;18.55;78.16;99613.77;435993;1254;138818;-63
2023/08/23 01:05:57;;;;;;;4.00;3.20;;;;;;;18.31;78.87;99620.27;435633;1257;140188;-63
2023/08/23 01:16:03;;;;;;;5.00;3.50;;;;;;;18.10;80.00;99626.50;435796;1254;139913;-63
2023/08/23 01:26:09;;;;;;;4.40;3.30;;;;;;;17.89;80.99;99628.63;435390;1257;139302;-63
2023/08/23 01:36:19;;;;;;;3.20;2.90;;;;;;;17.65;81.74;99627.14;435489;1254;143136;-63
2023/08/23 01:46:24;;;;;;;6.60;4.00;;;;;;;17.51;82.56;99628.23;435664;1254;139876;-63
2023/08/23 01:56:30;;;;;;;3.50;3.20;;;;;;;17.35;83.08;99628.52;435315;1257;139784;-62
2023/08/23 02:06:36;;;;;;;4.60;3.00;;;;;;;17.16;83.73;99635.13;435168;1256;139538;-62
2023/08/23 02:16:42;;;;;;;4.50;3.70;;;;;;;17.07;84.61;99637.71;435288;1254;139523;-64
2023/08/23 02:26:48;;;;;;;4.10;3.40;;;;;;;17.00;85.37;99634.64;435248;1254;139415;-62
2023/08/23 02:36:53;;;;;;;4.70;3.80;;;;;;;16.83;85.85;99632.27;435268;1257;140296;-62
2023/08/23 02:46:59;;;;;;;10.10;5.00;;;;;;;16.65;86.43;99629.89;435257;1253;140666;-64
2023/08/23 02:57:06;;;;;;;6.80;5.40;;;;;;;16.56;87.61;99635.70;435499;1257;140399;-64
2023/08/23 03:07:11;;;;;;;6.50;5.50;;;;;;;16.48;88.13;99647.31;435714;1254;140510;-63
2023/08/23 03:17:17;;;;;;;16.20;7.70;;;;;;;16.40;88.62;99662.35;435689;1254;139011;-63
2023/08/23 03:27:28;;;;;;;7.70;5.60;;;;;;;16.24;88.75;99667.27;435779;1256;139823;-64
2023/08/23 03:37:33;;;;;;;6.10;5.60;;;;;;;16.08;88.85;99670.03;435089;1254;139194;-63
2023/08/23 03:47:39;;;;;;;5.90;5.40;;;;;;;15.96;89.57;99674.52;435734;1256;140636;-63
2023/08/23 03:57:45;;;;;;;5.90;5.30;;;;;;;15.90;89.90;99671.36;435521;1254;139273;-63
2023/08/23 04:07:51;;;;;;;8.30;5.00;;;;;;;15.99;90.54;99676.96;435527;1254;139269;-63
2023/08/23 04:17:57;;;;;;;9.00;5.10;;;;;;;16.18;90.81;99681.38;435230;1257;140332;-63
2023/08/23 04:28:03;;;;;;;7.70;5.10;;;;;;;16.40;90.34;99674.83;435722;1254;141115;-62
2023/08/23 04:38:13;;;;;;;9.90;7.10;;;;;;;16.82;90.30;99678.81;435445;1254;138993;-63
2023/08/23 04:48:19;;;;;;;14.80;7.70;;;;;;;17.30;89.09;99678.52;435785;1253;141246;-64
2023/08/23 04:58:29;;;;;;;9.30;4.70;;;;;;;17.62;86.52;99693.14;435300;1253;139404;-62
2023/08/23 05:08:36;;;;;;;6.90;4.00;;;;;;;18.04;84.38;99696.54;435310;1257;138727;-62
2023/08/23 05:18:42;;;;;;;7.20;3.70;;;;;;;19.04;84.70;99699.12;435185;1253;140844;-63
2023/08/23 05:28:47;;;;;;;6.50;4.10;;;;;;;25.66;84.12;99701.25;435293;1253;139141;-63
2023/08/23 05:38:53;;;;;;;6.60;3.20;;;;;;;32.72;67.45;99699.64;435303;1253;138475;-63
2023/08/23 05:48:59;;;;;;;3.10;2.70;;;;;;;37.20;52.37;99701.36;435423;1253;139870;-63
2023/08/23 05:59:05;;;;;;;2.80;1.80;;;;;;;41.00;42.80;99711.98;435250;1256;139340;-64
2023/08/23 06:09:11;;;;;;;3.20;1.50;;;;;;;44.05;35.86;99712.61;435375;1256;139021;-65
2023/08/23 06:19:16;;;;;;;5.30;1.90;;;;;;;46.60;30.16;99704.80;435371;1257;138688;-64
2023/08/23 06:29:22;;;;;;;4.70;2.10;;;;;;;48.54;26.75;99713.45;436298;1256;138398;-66
2023/08/23 06:39:28;;;;;;;4.20;2.00;;;;;;;50.53;23.80;99710.84;435375;1257;138282;-65
2023/08/23 06:49:39;;;;;;;5.10;2.40;;;;;;;52.57;21.53;99711.78;435332;1253;139183;-63
2023/08/23 06:59:45;;;;;;;2.80;2.40;;;;;;;53.97;19.33;99714.44;435252;1257;139663;-69
2023/08/23 07:09:51;;;;;;;6.50;3.30;;;;;;;54.94;17.52;99715.15;435636;1253;138441;-65
2023/08/23 07:19:57;;;;;;;4.80;3.80;;;;;;;56.26;16.38;99722.63;435436;1254;138316;-68
2023/08/23 07:30:08;;;;;;;6.00;4.40;;;;;;;57.52;15.13;99725.54;435240;1256;139308;-70
2023/08/23 07:40:15;;;;;;;5.40;5.20;;;;;;;58.55;13.74;99731.89;435410;1254;138528;-72
2023/08/23 07:50:21;;;;;;;6.80;6.10;;;;;;;58.27;13.03;99734.28;435475;1257;138377;-68
2023/08/23 08:00:27;;;;;;;8.10;7.70;;;;;;;59.66;12.63;99735.27;435188;1254;138904;-71
2023/08/23 08:10:33;;;;;;;5.10;4.90;;;;;;;59.62;12.14;99739.08;435118;1256;140460;-73
2023/08/23 08:20:39;;;;;;;2.90;2.70;;;;;;;58.32;12.09;99731.41;435548;1253;138523;-65
2023/08/23 08:30:44;;;;;;;1.30;1.20;;;;;;;54.60;12.12;99716.66;435200;1253;138752;-65
2023/08/23 08:40:51;;;;;;;2.70;1.60;;;;;;;46.72;14.19;99708.50;435169;1256;138736;-68
2023/08/23 08:50:59;;;;;;;2.60;1.50;;;;;;;40.66;17.23;99721.17;435884;1253;138595;-74
2023/08/23 09:01:07;;;;;;;2.50;1.20;;;;;;;36.78;19.62;99744.30;436533;1254;139355;-65
2023/08/23 09:11:13;;;;;;;2.10;1.00;;;;;;;33.99;22.22;99760.10;435188;1257;139476;-72
2023/08/23 09:21:24;;;;;;;1.50;1.10;;;;;;;32.07;23.93;99766.13;435235;1254;138373;-70
2023/08/23 09:31:30;;;;;;;4.10;1.20;;;;;;;30.36;25.46;99756.83;435236;1257;138414;-73
2023/08/23 09:41:40;;;;;;;4.30;1.10;;;;;;;29.06;27.18;99749.73;436850;1253;138509;-66
2023/08/23 09:52:06;;;;;;;2.00;1.00;;;;;;;28.45;28.40;99752.88;435096;1253;138547;-66
2023/08/23 10:02:12;;;;;;;2.20;1.40;;;;;;;28.22;29.33;99755.27;435498;1253;139156;-66
2023/08/23 10:12:19;;;;;;;2.70;1.30;;;;;;;28.10;29.68;99755.86;435302;1256;138852;-64
2023/08/23 10:22:26;;;;;;;6.40;1.20;;;;;;;27.71;30.57;99760.92;435365;1256;138973;-65
2023/08/23 10:32:38;;;;;;;3.40;1.20;;;;;;;27.21;30.76;99762.95;436254;1257;138903;-65
2023/08/23 10:42:44;;;;;;;4.10;2.30;;;;;;;26.66;31.66;99758.61;435301;1256;139203;-63
2023/08/23 10:52:50;;;;;;;4.10;1.80;;;;;;;26.35;32.43;99745.86;435829;1256;138519;-63
2023/08/23 11:02:59;;;;;;;1.80;1.10;;;;;;;26.01;32.63;99739.33;436146;1256;138404;-63
2023/08/23 11:13:06;;;;;;;2.40;0.70;;;;;;;25.61;32.62;99734.31;435174;1257;138634;-62
2023/08/23 11:23:12;;;;;;;2.00;0.90;;;;;;;25.44;33.23;99735.75;435764;1256;139069;-62
2023/08/23 11:33:18;;;;;;;1.80;1.10;;;;;;;25.43;33.72;99724.49;436977;1253;139398;-63
2023/08/23 11:43:26;;;;;;;4.20;1.00;;;;;;;25.35;33.82;99716.30;435207;1257;139241;-62
2023/08/23 11:53:32;;;;;;;1.50;1.00;;;;;;;25.21;34.11;99717.79;435397;1256;138504;-66
2023/08/23 12:03:38;;;;;;;5.10;1.80;;;;;;;25.26;34.54;99712.63;435331;1256;138457;-69
2023/08/23 12:13:44;;;;;;;2.50;1.70;;;;;;;25.28;35.00;99707.91;435253;1253;139195;-67
2023/08/23 12:23:51;;;;;;;5.20;3.00;;;;;;;25.34;35.39;99713.09;435190;1257;138416;-63
2023/08/23 12:33:57;;;;;;;1.90;1.80;;;;;;;25.49;35.64;99712.39;435122;1258;138445;-63
2023/08/23 12:44:04;;;;;;;4.50;2.00;;;;;;;25.66;35.50;99709.82;435084;1253;139086;-62
2023/08/23 12:54:09;;;;;;;;;;;;;;;25.70;35.62;99705.80;435881;1253;138841;-65
2023/08/23 13:04:15;;;;;;;3.30;2.30;;;;;;;25.70;35.85;99702.91;435171;1257;125649;-65
2023/08/23 13:14:21;;;;;;;3.40;1.40;;;;;;;25.77;35.90;99697.75;435610;1253;138840;-70
2023/08/23 13:24:27;;;;;;;4.20;2.10;;;;;;;25.95;35.72;99690.36;435543;1257;138832;-66
2023/08/23 13:34:33;;;;;;;7.60;2.10;;;;;;;26.09;35.65;99689.63;435794;1258;138775;-64
2023/08/23 13:44:40;;;;;;;6.80;1.90;;;;;;;25.97;35.72;99684.09;435712;1257;139384;-65
2023/08/23 13:54:46;;;;;;;7.10;1.90;;;;;;;25.87;36.23;99678.98;435519;1257;139892;-65
2023/08/23 14:04:52;;;;;;;3.10;1.90;;;;;;;25.83;36.45;99683.80;435456;1254;138785;-66
2023/08/23 14:14:59;;;;;;;3.60;1.50;;;;;;;25.78;36.43;99677.42;435867;1256;138396;-63
2023/08/23 14:25:06;;;;;;;1.80;1.40;;;;;;;25.82;36.59;99675.06;435339;1256;140688;-62
2023/08/23 14:35:12;;;;;;;5.00;2.30;;;;;;;25.85;36.71;99674.84;435611;1256;139452;-59
2023/08/23 14:45:18;;;;;;;3.50;2.20;;;;;;;25.94;36.74;99670.13;436057;1257;138293;-63
2023/08/23 14:55:28;;;;;;;2.60;1.70;;;;;;;26.04;36.81;99656.56;435347;1257;138888;-62
2023/08/23 15:05:34;;;;;;;2.30;1.30;;;;;;;26.03;36.85;99650.95;435727;1256;138405;-63
2023/08/23 15:15:40;;;;;;;4.50;1.20;;;;;;;25.92;36.93;99650.55;435611;1256;140217;-63
2023/08/23 15:25:47;;;;;;;2.60;1.60;;;;;;;25.67;37.32;99654.77;435735;1256;139312;-62
2023/08/23 15:35:52;;;;;;;;;;;;;;;25.56;37.77;99660.07;435654;1257;139747;-62
2023/08/23 15:45:57;;;;;;;1.90;1.30;;;;;;;25.47;38.24;99658.00;435739;1258;125830;-61
2023/08/23 15:56:04;;;;;;;4.60;1.30;;;;;;;25.32;38.17;99653.69;435957;1257;138420;-62
2023/08/23 16:06:10;;;;;;;19.50;3.10;;;;;;;25.10;38.60;99642.63;435539;1258;138532;-63
2023/08/23 16:16:17;;;;;;;1.20;1.00;;;;;;;24.91;38.91;99632.86;435972;1257;138857;-62
2023/08/23 16:26:23;;;;;;;0.80;0.80;;;;;;;24.71;38.85;99636.69;436794;1257;139357;-63
2023/08/23 16:36:29;;;;;;;2.10;1.30;;;;;;;24.49;39.28;99627.02;435787;1256;140620;-63
2023/08/23 16:46:35;;;;;;;1.20;0.80;;;;;;;24.27;40.08;99628.38;435321;1254;138568;-62
2023/08/23 16:56:41;;;;;;;9.30;1.20;;;;;;;24.19;41.03;99633.52;435298;1255;138652;-61
2023/08/23 17:06:50;;;;;;;7.90;1.60;;;;;;;24.38;40.87;99638.70;435366;1257;139476;-64
2023/08/23 17:17:00;;;;;;;3.60;1.40;;;;;;;23.97;41.97;99645.98;435091;1256;139086;-63
2023/08/23 17:27:07;;;;;;;2.80;1.40;;;;;;;23.46;42.99;99654.20;435354;1257;138406;-62
2023/08/23 17:37:13;;;;;;;2.40;0.90;;;;;;;22.97;45.20;99654.02;435177;1257;138456;-62
2023/08/23 17:47:23;;;;;;;2.50;1.20;;;;;;;22.45;47.28;99661.66;435221;1256;139796;-61
2023/08/23 17:57:29;;;;;;;4.10;1.60;;;;;;;21.89;48.93;99668.25;435700;1257;138623;-62
2023/08/23 18:07:34;;;;;;;7.20;1.90;;;;;;;21.42;50.65;99683.19;435407;1257;138439;-62
2023/08/23 18:17:40;;;;;;;6.30;1.50;;;;;;;20.98;52.36;99687.40;435509;1257;138655;-61
2023/08/23 18:27:49;;;;;;;10.50;4.10;;;;;;;20.57;54.17;99696.05;435689;1257;139276;-63
2023/08/23 18:37:54;;;;;;;7.60;2.50;;;;;;;20.19;56.03;99702.81;435260;1258;139075;-63
2023/08/23 18:48:00;;;;;;;7.00;3.50;;;;;;;19.93;57.91;99705.65;435476;1257;139299;-62
2023/08/23 18:58:06;;;;;;;11.70;5.10;;;;;;;19.72;58.78;99713.61;435536;1254;139313;-62
2023/08/23 19:08:12;;;;;;;12.60;6.80;;;;;;;19.48;59.62;99715.92;435681;1257;141846;-61
2023/08/23 19:18:19;;;;;;;13.60;6.60;;;;;;;19.21;60.96;99723.95;436161;1257;141187;-61
2023/08/23 19:28:25;;;;;;;8.30;5.20;;;;;;;18.97;62.06;99738.08;435934;1254;139781;-61
2023/08/23 19:38:31;;;;;;;14.80;6.20;;;;;;;18.82;63.08;99735.86;435825;1254;139311;-60
2023/08/23 19:48:39;;;;;;;12.70;5.40;;;;;;;18.66;63.57;99735.54;435320;1255;139105;-61
2023/08/23 19:58:45;;;;;;;10.30;6.20;;;;;;;18.44;64.38;99734.61;435678;1253;140591;-61
2023/08/23 20:08:52;;;;;;;6.80;4.30;;;;;;;18.25;65.20;99736.94;435674;1254;140033;-61
2023/08/23 20:19:00;;;;;;;10.90;5.00;;;;;;;18.10;66.01;99726.07;435465;1257;139185;-58
2023/08/23 20:29:10;;;;;;;7.20;4.40;;;;;;;17.92;66.86;99722.02;435352;1254;139110;-59
2023/08/23 20:39:17;;;;;;;16.20;4.90;;;;;;;17.72;67.49;99729.02;435959;1257;139119;-58
2023/08/23 20:49:24;;;;;;;6.70;4.90;;;;;;;17.54;68.13;99736.27;435339;1254;139362;-59
2023/08/23 20:59:29;;;;;;;7.40;5.20;;;;;;;17.35;68.76;99732.02;435422;1253;139462;-59
2023/08/23 21:09:39;;;;;;;9.40;5.10;;;;;;;17.18;69.35;99734.79;435245;1254;140077;-59
2023/08/23 21:19:46;;;;;;;5.70;4.30;;;;;;;17.03;70.00;99732.90;436059;1254;141354;-59
2023/08/23 21:29:52;;;;;;;7.00;4.50;;;;;;;16.89;70.67;99730.49;435048;1257;139125;-59
2023/08/23 21:39:58;;;;;;;8.80;5.20;;;;;;;16.79;71.22;99721.13;435203;1257;138995;-58
2023/08/23 21:50:05;;;;;;;7.00;4.30;;;;;;;16.74;71.89;99713.68;435529;1257;139225;-58
2023/08/23 22:00:13;;;;;;;13.30;6.80;;;;;;;16.65;72.15;99717.10;435292;1257;140148;-58
2023/08/23 22:10:20;;;;;;;8.20;4.30;;;;;;;16.55;72.64;99716.00;435363;1254;141164;-59
2023/08/23 22:20:26;;;;;;;5.80;4.60;;;;;;;16.43;72.88;99712.78;435826;1254;139085;-59
2023/08/23 22:30:33;;;;;;;6.20;3.80;;;;;;;16.36;73.37;99709.98;435254;1253;140691;-59
2023/08/23 22:40:39;;;;;;;4.20;3.70;;;;;;;16.26;73.83;99704.89;435497;1254;140655;-58
2023/08/23 22:50:45;;;;;;;7.50;5.50;;;;;;;16.15;74.26;99706.37;435787;1253;139113;-60
2023/08/23 23:00:59;;;;;;;6.60;4.70;;;;;;;16.06;74.71;99700.39;435492;1254;139230;-59
2023/08/23 23:11:06;;;;;;;6.70;5.10;;;;;;;16.02;75.24;99705.68;435264;1256;139181;-59
2023/08/23 23:21:14;;;;;;;7.30;4.60;;;;;;;15.95;75.93;99711.95;435786;1254;140094;-60
2023/08/23 23:31:23;;;;;;;8.30;5.20;;;;;;;15.91;76.68;99705.84;435314;1256;139119;-58
2023/08/23 23:41:29;;;;;;;8.10;6.30;;;;;;;15.91;76.79;99704.80;435564;1257;139210;-60
2023/08/23 23:51:35;;;;;;;7.40;5.20;;;;;;;15.95;77.36;99705.03;435427;1256;140649;-59
